Time;durP1;ratioP1;P1;durP2;ratioP2;P2;SDS_P1;SDS_P2;PMS_P1;PMS_P2;Temp;Humidity;BMP_temperature;BMP_pressure;BME280_temperature;BME280_humidity;BME280_pressure;Samples;Min_cycle;Max_cycle;Signal;HPM_P1;HPM_P2
2022/08/26 00:00:41;;;;;;;;;4.25;3.00;;;;;24.92;41.11;101194.47;5079680;28;45381;-58
2022/08/26 00:03:07;;;;;;;;;3.25;2.00;;;;;24.93;40.98;101196.19;5080013;28;45333;-58
2022/08/26 00:05:32;;;;;;;;;4.00;3.00;;;;;24.92;41.03;101191.78;5080453;28;45321;-58
2022/08/26 00:07:58;;;;;;;;;3.25;3.25;;;;;24.86;40.76;101189.50;5079989;28;46935;-58
2022/08/26 00:10:23;;;;;;;;;4.25;4.25;;;;;24.86;41.03;101188.66;5080498;28;45374;-58
2022/08/26 00:12:49;;;;;;;;;2.00;2.00;;;;;24.82;41.23;101188.84;5048968;28;45757;-58
2022/08/26 00:15:17;;;;;;;;;3.75;3.75;;;;;24.81;41.13;101186.28;5083708;27;45487;-58
2022/08/26 00:17:43;;;;;;;;;3.50;2.00;;;;;24.78;41.02;101190.03;5083430;28;45396;-57
2022/08/26 00:20:12;;;;;;;;;4.75;4.75;;;;;24.78;41.04;101195.41;5083590;28;45462;-57
2022/08/26 00:22:38;;;;;;;;;3.25;3.25;;;;;24.76;40.82;101189.25;5083688;28;45287;-57
2022/08/26 00:25:06;;;;;;;;;3.00;3.00;;;;;24.77;41.47;101191.00;5083592;28;45500;-57
2022/08/26 00:27:32;;;;;;;;;5.00;3.25;;;;;24.76;41.11;101191.09;5083224;28;46532;-57
2022/08/26 00:29:59;;;;;;;;;6.00;4.00;;;;;24.78;41.36;101199.91;5083232;28;45189;-57
2022/08/26 00:32:25;;;;;;;;;4.25;3.50;;;;;24.78;41.62;101205.28;5083326;28;45322;-57
2022/08/26 00:34:50;;;;;;;;;5.00;5.00;;;;;24.78;41.44;101199.91;5083619;28;45295;-57
2022/08/26 00:37:15;;;;;;;;;4.00;4.00;;;;;24.77;41.32;101203.56;5083307;28;46081;-57
2022/08/26 00:39:40;;;;;;;;;4.25;4.25;;;;;24.77;41.76;101217.00;5083372;28;45299;-57
2022/08/26 00:42:06;;;;;;;;;3.75;3.75;;;;;24.74;41.79;101203.75;5083448;28;45227;-57
2022/08/26 00:44:31;;;;;;;;;4.25;4.00;;;;;24.75;41.78;101216.25;5083146;28;45519;-57
2022/08/26 00:47:01;;;;;;;;;5.75;4.50;;;;;24.74;41.86;101210.03;5083051;28;45533;-57
2022/08/26 00:49:38;;;;;;;;;4.25;4.25;;;;;24.72;41.89;101211.09;5082902;28;45177;-57
2022/08/26 00:52:07;;;;;;;;;4.25;4.25;;;;;24.72;41.79;101211.94;5072476;28;45402;-57
2022/08/26 00:54:39;;;;;;;;;4.00;3.00;;;;;24.71;41.73;101210.22;5062726;28;45373;-57
2022/08/26 00:57:12;;;;;;;;;3.25;3.25;;;;;24.69;41.60;101211.28;5081488;28;46967;-57
2022/08/26 00:59:39;;;;;;;;;4.00;3.75;;;;;24.70;41.69;101213.00;5082728;28;45456;-57
2022/08/26 01:02:05;;;;;;;;;4.75;3.75;;;;;24.67;42.04;101214.06;5082848;28;45431;-57
2022/08/26 01:04:33;;;;;;;;;4.50;4.50;;;;;24.65;41.86;101210.59;5082922;28;45244;-57
2022/08/26 01:06:59;;;;;;;;;4.25;4.00;;;;;24.62;42.01;101200.06;5082833;28;46403;-57
2022/08/26 01:09:26;;;;;;;;;4.75;3.50;;;;;24.62;42.00;101205.44;5082902;28;45405;-57
2022/08/26 01:11:56;;;;;;;;;5.50;5.25;;;;;24.63;41.92;101210.69;5083008;28;45479;-58
2022/08/26 01:14:24;;;;;;;;;5.00;5.00;;;;;24.63;41.98;101197.25;5082462;28;45268;-58
2022/08/26 01:16:49;;;;;;;;;6.50;6.50;;;;;24.62;41.85;101205.44;5082557;28;45258;-58
2022/08/26 01:19:22;;;;;;;;;7.50;5.75;;;;;24.59;42.48;101201.13;5082573;28;45148;-58
2022/08/26 01:21:55;;;;;;;;;5.00;5.00;;;;;24.55;42.22;101199.56;5082798;28;45236;-58
2022/08/26 01:24:20;;;;;;;;;5.25;5.25;;;;;24.55;42.29;101196.88;5066844;28;45357;-58
2022/08/26 01:26:47;;;;;;;;;6.00;5.00;;;;;24.53;42.25;101206.00;5082730;28;45422;-58
2022/08/26 01:29:16;;;;;;;;;5.50;5.50;;;;;24.50;42.14;101194.53;5082231;28;45379;-58
2022/08/26 01:31:46;;;;;;;;;5.75;5.00;;;;;24.49;42.32;101194.63;5082422;28;45291;-58
2022/08/26 01:34:11;;;;;;;;;6.00;6.00;;;;;24.47;42.10;101201.91;5082260;28;45493;-58
2022/08/26 01:36:38;;;;;;;;;8.00;7.00;;;;;24.44;42.19;101197.63;5082159;28;45427;-58
2022/08/26 01:39:05;;;;;;;;;7.00;5.00;;;;;24.41;42.50;101200.47;5082333;28;45352;-58
2022/08/26 01:41:31;;;;;;;;;6.25;6.25;;;;;24.34;42.46;101197.34;5081184;28;45224;-58
2022/08/26 01:43:59;;;;;;;;;8.00;6.00;;;;;24.36;42.55;101201.75;5067007;28;45273;-58
2022/08/26 01:46:27;;;;;;;;;5.00;5.00;;;;;24.33;42.75;101200.16;5082052;28;46281;-58
2022/08/26 01:48:54;;;;;;;;;5.00;4.75;;;;;24.31;42.86;101202.06;5082107;28;45328;-58
2022/08/26 01:51:22;;;;;;;;;6.00;6.00;;;;;24.29;42.60;101204.84;5077113;28;46468;-58
2022/08/26 01:53:48;;;;;;;;;6.00;6.00;;;;;24.30;42.73;101206.56;5064242;28;45251;-58
2022/08/26 01:56:14;;;;;;;;;8.00;7.00;;;;;24.27;42.69;101206.75;5073596;28;46193;-58
2022/08/26 01:58:51;;;;;;;;;9.25;7.50;;;;;24.26;42.66;101212.22;5081731;28;45469;-58
2022/08/26 02:01:17;;;;;;;;;5.25;4.50;;;;;24.22;42.62;101208.88;5081879;28;45272;-58
2022/08/26 02:04:16;;;;;;;;;5.25;5.00;;;;;24.25;42.60;101213.19;5081919;28;45493;-58
2022/08/26 02:06:43;;;;;;;;;6.25;6.00;;;;;24.21;42.64;101215.19;5081747;28;46362;-58
2022/08/26 02:09:09;;;;;;;;;8.00;5.75;;;;;24.19;42.98;101217.16;5081960;28;45178;-58
2022/08/26 02:11:35;;;;;;;;;6.75;5.00;;;;;24.16;43.08;101214.66;5081798;28;45345;-58
2022/08/26 02:14:10;;;;;;;;;5.50;5.00;;;;;24.14;43.05;101230.84;5081610;28;45418;-58
2022/08/26 02:16:39;;;;;;;;;7.25;7.25;;;;;24.11;42.85;101227.50;5081548;28;46443;-58
2022/08/26 02:19:08;;;;;;;;;7.00;7.00;;;;;24.08;43.20;101222.34;5081794;28;45390;-58
2022/08/26 02:21:34;;;;;;;;;7.75;7.50;;;;;24.08;43.10;101227.72;5081652;28;45248;-58
2022/08/26 02:24:18;;;;;;;;;6.50;6.50;;;;;24.06;43.19;101226.94;5081663;28;45261;-58
2022/08/26 02:26:45;;;;;;;;;8.50;7.00;;;;;24.04;43.24;101234.22;5081593;28;45397;-58
2022/08/26 02:29:19;;;;;;;;;5.75;5.00;;;;;24.04;43.25;101228.84;5081191;28;45268;-58
2022/08/26 02:31:47;;;;;;;;;9.00;7.00;;;;;24.01;43.47;101227.22;5081605;28;45406;-58
2022/08/26 02:34:15;;;;;;;;;6.50;6.50;;;;;24.00;43.38;101226.38;5081210;28;45337;-58
2022/08/26 02:36:41;;;;;;;;;6.25;5.50;;;;;23.99;43.51;101239.91;5080544;28;45231;-58
2022/08/26 02:39:07;;;;;;;;;7.00;7.00;;;;;23.96;43.55;101234.69;5081325;28;45246;-58
2022/08/26 02:41:33;;;;;;;;;11.75;10.50;;;;;23.94;43.74;101231.28;5081507;28;45216;-58
2022/08/26 02:43:58;;;;;;;;;6.75;6.75;;;;;23.92;43.34;101238.53;5081140;28;45447;-58
2022/08/26 02:46:24;;;;;;;;;7.00;7.00;;;;;23.91;43.48;101239.47;5081259;28;46384;-58
2022/08/26 02:48:50;;;;;;;;;8.00;8.00;;;;;23.87;43.96;101238.78;5081221;28;45477;-58
2022/08/26 02:51:15;;;;;;;;;8.75;8.75;;;;;23.83;43.89;101227.38;5071884;28;45320;-58
2022/08/26 02:53:41;;;;;;;;;8.50;8.00;;;;;23.79;43.70;101231.22;5063462;28;45350;-58
2022/08/26 02:56:07;;;;;;;;;9.00;7.75;;;;;23.77;43.50;101234.97;5070356;28;46497;-58
2022/08/26 02:58:33;;;;;;;;;8.00;8.00;;;;;23.75;43.76;101236.88;5080723;27;45339;-58
2022/08/26 03:00:58;;;;;;;;;8.75;7.50;;;;;23.65;43.78;101226.72;5080702;28;45472;-58
2022/08/26 03:03:24;;;;;;;;;10.00;8.75;;;;;23.69;43.68;101235.44;5081207;28;45291;-58
2022/08/26 03:05:50;;;;;;;;;9.00;9.00;;;;;23.67;43.76;101234.66;5081015;28;46782;-58
2022/08/26 03:08:16;;;;;;;;;8.00;8.00;;;;;23.66;43.81;101239.19;5080985;28;45264;-58
2022/08/26 03:10:41;;;;;;;;;10.25;9.00;;;;;23.59;43.75;101232.47;5080871;28;45328;-58
2022/08/26 03:13:06;;;;;;;;;9.00;9.00;;;;;23.60;44.17;101238.69;5080836;28;45401;-58
2022/08/26 03:15:32;;;;;;;;;10.00;10.00;;;;;23.56;44.13;101232.66;5080500;28;47051;-58
2022/08/26 03:17:57;;;;;;;;;12.75;12.25;;;;;23.56;44.38;101243.38;5080685;28;45227;-58
2022/08/26 03:20:23;;;;;;;;;8.75;7.75;;;;;23.56;44.24;101235.34;5080927;28;45354;-58
2022/08/26 03:22:52;;;;;;;;;11.25;10.00;;;;;23.52;44.28;101231.97;5080650;28;45227;-58
2022/08/26 03:25:18;;;;;;;;;8.00;7.00;;;;;23.56;44.14;101234.47;5080422;28;45404;-58
2022/08/26 03:27:44;;;;;;;;;10.00;9.00;;;;;23.53;44.09;101232.84;5080623;28;45350;-57
2022/08/26 03:32:56;;;;;;;;;10.00;9.00;;;;;23.49;44.36;101233.97;5080724;28;45216;-58
2022/08/26 03:35:21;;;;;;;;;8.00;7.75;;;;;23.48;44.43;101232.25;5065334;28;46459;-58
2022/08/26 03:37:46;;;;;;;;;11.50;10.75;;;;;23.47;44.36;101238.56;5080574;28;45241;-58
2022/08/26 03:40:12;;;;;;;;;11.25;10.00;;;;;23.44;44.49;101236.94;5080218;28;45212;-57
2022/08/26 03:42:39;;;;;;;;;13.50;12.25;;;;;23.42;44.85;101228.13;5080413;28;45638;-58
2022/08/26 03:45:07;;;;;;;;;13.00;12.50;;;;;23.40;44.44;101221.16;5080000;28;46100;-58
2022/08/26 03:47:32;;;;;;;;;11.25;11.00;;;;;23.39;44.62;101230.16;5079955;28;45291;-58
2022/08/26 03:49:58;;;;;;;;;16.00;12.25;;;;;23.37;44.57;101231.09;5075537;28;45334;-57
2022/08/26 03:52:24;;;;;;;;;10.25;9.50;;;;;23.36;44.51;101237.41;5068451;28;45251;-57
2022/08/26 03:54:49;;;;;;;;;10.50;10.25;;;;;23.34;44.41;101230.41;5059887;28;46309;-57
2022/08/26 03:57:14;;;;;;;;;10.50;10.50;;;;;23.32;44.82;101232.31;5080305;27;45152;-58
2022/08/26 03:59:40;;;;;;;;;14.50;13.50;;;;;23.29;44.78;101230.69;5079842;28;45412;-57
2022/08/26 04:02:05;;;;;;;;;13.75;11.00;;;;;23.28;44.69;101226.31;5080184;28;45439;-58
2022/08/26 04:04:31;;;;;;;;;15.50;12.50;;;;;23.25;44.82;101228.31;5065217;28;45419;-57
2022/08/26 04:06:58;;;;;;;;;12.25;12.25;;;;;23.21;44.63;101231.16;5080145;28;45295;-58
2022/08/26 04:09:24;;;;;;;;;12.00;12.00;;;;;23.18;45.17;101222.41;5080253;28;45386;-57
2022/08/26 04:11:49;;;;;;;;;13.00;12.25;;;;;23.16;44.68;101229.72;5080038;28;45385;-57
2022/08/26 04:14:18;;;;;;;;;16.75;14.00;;;;;23.14;44.92;101226.22;5064341;28;52063;-57
2022/08/26 04:16:45;;;;;;;;;14.00;12.00;;;;;23.11;44.95;101229.09;5080149;28;45355;-58
2022/08/26 04:19:11;;;;;;;;;14.00;12.75;;;;;23.07;45.28;101219.47;5079950;28;45230;-58
2022/08/26 04:21:37;;;;;;;;;14.00;12.75;;;;;23.03;45.05;101225.03;5080023;28;45222;-58
2022/08/26 04:24:04;;;;;;;;;12.75;12.25;;;;;23.04;45.06;101226.78;5079677;28;46222;-58
2022/08/26 04:26:35;;;;;;;;;14.00;12.50;;;;;23.03;45.35;101227.72;5079857;28;45357;-58
2022/08/26 04:29:03;;;;;;;;;11.50;11.00;;;;;23.02;45.33;101234.03;5079716;28;45376;-58
2022/08/26 04:31:28;;;;;;;;;16.75;13.50;;;;;22.99;45.32;101228.88;5079911;28;45394;-58
2022/08/26 04:33:55;;;;;;;;;17.25;17.00;;;;;23.00;45.61;101230.56;5079434;28;45485;-58
2022/08/26 04:36:22;;;;;;;;;16.00;13.75;;;;;23.02;45.22;101230.50;5079841;28;45319;-58
2022/08/26 04:38:49;;;;;;;;;17.50;15.00;;;;;23.03;45.31;101234.88;5079761;28;45329;-58
2022/08/26 04:41:14;;;;;;;;;14.50;14.00;;;;;23.02;45.27;101244.75;5079493;28;45222;-58
2022/08/26 04:43:40;;;;;;;;;15.75;13.50;;;;;23.00;45.65;101245.78;5079123;28;46000;-58
2022/08/26 04:46:08;;;;;;;;;16.00;14.50;;;;;22.97;45.73;101236.13;5078453;28;45290;-58
2022/08/26 04:48:34;;;;;;;;;16.00;14.75;;;;;22.98;45.79;101240.53;5079518;28;45239;-58
2022/08/26 04:51:00;;;;;;;;;15.00;14.00;;;;;22.98;45.33;101242.31;5070073;28;45328;-58
2022/08/26 04:53:27;;;;;;;;;16.75;16.25;;;;;22.98;45.74;101243.22;5063916;27;45336;-58
2022/08/26 04:55:52;;;;;;;;;14.25;14.00;;;;;22.99;45.72;101247.63;5067844;28;45331;-58
2022/08/26 04:58:19;;;;;;;;;19.25;14.25;;;;;22.99;45.65;101249.41;5079489;28;45318;-58
2022/08/26 05:00:47;;;;;;;;;17.75;14.25;;;;;22.98;45.84;101248.56;5081127;28;45514;-58
2022/08/26 05:03:13;;;;;;;;;19.75;16.50;;;;;22.99;45.77;101244.94;5081387;28;47452;-58
2022/08/26 05:05:44;;;;;;;;;17.50;15.25;;;;;22.99;45.62;101249.41;5082858;28;45412;-58
2022/08/26 05:08:11;;;;;;;;;14.00;12.75;;;;;22.98;45.57;101253.03;5082869;28;45223;-58
2022/08/26 05:10:49;;;;;;;;;17.00;13.50;;;;;22.99;46.03;101254.78;5082748;28;45430;-58
2022/08/26 05:13:18;;;;;;;;;18.00;15.00;;;;;22.97;45.97;101252.19;5082413;28;46427;-58
2022/08/26 05:15:45;;;;;;;;;18.00;15.75;;;;;22.95;46.26;101255.91;5082658;28;45360;-58
2022/08/26 05:18:12;;;;;;;;;15.50;13.25;;;;;22.96;46.16;101258.50;5082552;28;45429;-58
2022/08/26 05:20:40;;;;;;;;;16.50;16.50;;;;;22.98;46.08;101263.75;5082577;28;45399;-58
2022/08/26 05:23:05;;;;;;;;;19.75;19.50;;;;;22.98;46.61;101259.28;5081154;28;46012;-58
2022/08/26 05:25:31;;;;;;;;;17.75;15.25;;;;;23.00;46.62;101265.41;5082443;28;45346;-58
2022/08/26 05:27:56;;;;;;;;;16.25;14.00;;;;;23.00;46.07;101268.09;5082710;28;45335;-58
2022/08/26 05:30:22;;;;;;;;;12.75;12.75;;;;;23.01;46.21;101266.28;5082243;28;45318;-58
2022/08/26 05:32:49;;;;;;;;;16.50;14.75;;;;;23.04;46.29;101275.00;5081837;28;45395;-58
2022/08/26 05:35:16;;;;;;;;;19.25;15.75;;;;;23.07;46.32;101275.75;5082243;28;46436;-58
2022/08/26 05:37:41;;;;;;;;;14.00;13.50;;;;;23.10;46.34;101278.28;5081780;28;45305;-58
2022/08/26 05:40:07;;;;;;;;;19.75;14.75;;;;;23.11;46.62;101280.88;5082084;28;45484;-59
2022/08/26 05:42:32;;;;;;;;;17.75;16.25;;;;;22.84;46.39;101229.75;5082099;28;46268;-58
2022/08/26 05:44:58;;;;;;;;;15.25;14.50;;;;;23.12;46.61;101273.69;5081965;28;45344;-58
2022/08/26 05:47:25;;;;;;;;;16.00;15.75;;;;;23.16;46.37;101289.53;5082275;28;45357;-58
2022/08/26 05:49:50;;;;;;;;;17.00;15.00;;;;;23.18;46.27;101286.75;5078494;28;45437;-58
2022/08/26 05:52:15;;;;;;;;;16.75;14.00;;;;;23.18;46.75;101294.78;5070841;28;46285;-58
2022/08/26 05:54:41;;;;;;;;;15.75;13.00;;;;;23.17;46.10;101287.72;5061788;28;45305;-58
2022/08/26 05:57:06;;;;;;;;;20.00;18.50;;;;;23.23;46.14;101295.38;5081084;28;45420;-58
2022/08/26 05:59:31;;;;;;;;;17.00;15.25;;;;;23.26;46.43;101295.22;5051410;28;45517;-58
2022/08/26 06:01:56;;;;;;;;;14.75;14.75;;;;;23.29;46.34;101296.84;5061528;28;45319;-66
2022/08/26 06:04:24;;;;;;;;;15.75;15.75;;;;;23.32;46.38;101294.84;5072715;27;45526;-58
2022/08/26 06:06:50;;;;;;;;;18.75;17.75;;;;;23.34;46.38;101292.94;5066375;27;45248;-58
2022/08/26 06:09:15;;;;;;;;;13.75;13.75;;;;;23.36;46.42;101296.41;5069222;28;45537;-58
2022/08/26 06:11:41;;;;;;;;;16.75;14.50;;;;;23.39;46.33;101300.72;5068530;28;45503;-58
2022/08/26 06:14:07;;;;;;;;;19.50;15.75;;;;;23.41;46.29;101292.56;5073990;28;45272;-58
2022/08/26 06:16:37;;;;;;;;;14.00;13.50;;;;;23.43;46.60;101298.72;5067386;28;45358;-58
2022/08/26 06:19:04;;;;;;;;;18.75;15.50;;;;;23.45;46.26;101297.66;5076805;28;45434;-58
2022/08/26 06:21:32;;;;;;;;;22.00;16.00;;;;;23.47;46.50;101300.25;5072198;27;45454;-57
2022/08/26 06:38:57;;;;;;;;;20.00;18.50;;;;;23.55;46.47;101311.38;5148486;27;45373;-60
2022/08/26 06:41:23;;;;;;;;;13.50;12.75;;;;;23.56;46.41;101304.19;5106224;27;45584;-59
2022/08/26 06:43:49;;;;;;;;;13.00;13.00;;;;;23.58;46.58;101307.66;5119112;27;45307;-62
2022/08/26 06:46:17;;;;;;;;;16.25;13.25;;;;;23.59;46.31;101301.34;5135035;27;45695;-61
2022/08/26 06:48:44;;;;;;;;;11.75;11.50;;;;;23.58;46.21;101296.94;5137104;27;45372;-58
2022/08/26 06:51:16;;;;;;;;;10.00;10.00;;;;;23.62;46.20;101296.66;5137943;27;45289;-61
2022/08/26 06:53:45;;;;;;;;;11.50;11.50;;;;;23.65;46.22;101304.50;5137032;27;45340;-60
2022/08/26 06:56:12;;;;;;;;;13.75;11.50;;;;;23.66;46.32;101291.94;5138212;27;45165;-60
2022/08/26 06:58:39;;;;;;;;;12.75;12.75;;;;;23.69;46.30;101297.16;5137320;27;46186;-60
2022/08/26 07:01:13;;;;;;;;;10.25;10.25;;;;;23.68;46.21;101296.28;5133141;27;45426;-60
2022/08/26 07:03:39;;;;;;;;;14.50;12.00;;;;;23.72;46.15;101301.47;5133231;27;45299;-60
2022/08/26 07:06:04;;;;;;;;;11.25;10.00;;;;;23.74;46.28;101304.91;5128187;27;48592;-59
2022/08/26 07:08:30;;;;;;;;;14.75;14.75;;;;;23.74;46.32;101305.78;5135776;27;46329;-60
2022/08/26 07:10:55;;;;;;;;;16.00;15.50;;;;;23.77;46.16;101307.41;5138205;27;45211;-60
2022/08/26 07:13:22;;;;;;;;;13.75;11.25;;;;;23.79;46.29;101300.97;5137877;27;45707;-60
2022/08/26 07:15:48;;;;;;;;;10.00;9.00;;;;;23.80;46.06;101304.56;5134014;27;45321;-60
2022/08/26 07:18:14;;;;;;;;;16.50;13.00;;;;;23.80;46.17;101302.72;5135133;27;46155;-60
2022/08/26 07:20:40;;;;;;;;;12.50;11.00;;;;;23.85;45.98;101303.28;5138124;27;45218;-59
2022/08/26 07:23:10;;;;;;;;;10.50;10.25;;;;;23.86;46.11;101305.03;5119279;27;45480;-60
2022/08/26 07:25:40;;;;;;;;;11.25;10.25;;;;;23.89;46.14;101305.81;5137896;27;45550;-60
2022/08/26 07:28:06;;;;;;;;;11.00;11.00;;;;;23.90;46.17;101302.13;5135124;27;46218;-60
2022/08/26 07:30:31;;;;;;;;;16.00;13.50;;;;;23.91;46.23;101302.09;5135135;27;45225;-60
2022/08/26 07:32:58;;;;;;;;;15.75;11.25;;;;;23.92;46.27;101302.94;5134450;27;45296;-60
2022/08/26 07:35:24;;;;;;;;;11.75;11.00;;;;;23.93;46.17;101308.22;5137320;27;45277;-59
2022/08/26 07:37:49;;;;;;;;;11.25;10.75;;;;;23.92;46.29;101314.53;5132028;27;45406;-59
2022/08/26 07:40:15;;;;;;;;;13.00;13.00;;;;;23.93;46.16;101310.06;5113953;27;45255;-59
2022/08/26 07:42:40;;;;;;;;;13.50;12.25;;;;;23.90;45.95;101315.56;5119925;27;45266;-60
2022/08/26 07:45:06;;;;;;;;;12.50;11.00;;;;;23.94;46.05;101311.78;5123779;27;45502;-60
2022/08/26 07:47:31;;;;;;;;;11.75;9.75;;;;;23.95;46.10;101317.03;5123462;27;46961;-59
2022/08/26 07:49:57;;;;;;;;;11.00;10.00;;;;;23.97;46.02;101314.25;5123740;27;45227;-59
2022/08/26 07:52:26;;;;;;;;;12.00;11.25;;;;;24.00;46.06;101314.09;5123679;27;45420;-59
2022/08/26 07:54:51;;;;;;;;;11.75;11.00;;;;;24.03;46.24;101316.56;5123666;27;45173;-59
2022/08/26 07:57:16;;;;;;;;;14.75;14.00;;;;;24.05;46.03;101311.97;5122245;27;45291;-59
2022/08/26 07:59:41;;;;;;;;;10.50;10.00;;;;;24.10;46.08;101311.66;5123715;27;45396;-60
2022/08/26 08:02:07;;;;;;;;;11.50;9.00;;;;;24.13;45.91;101311.50;5121484;27;45423;-59
2022/08/26 08:04:33;;;;;;;;;11.00;10.00;;;;;24.13;45.72;101316.88;5112915;27;45177;-59
2022/08/26 08:06:58;;;;;;;;;11.00;8.75;;;;;24.16;46.09;101313.97;5123149;27;45293;-59
2022/08/26 08:09:24;;;;;;;;;10.75;9.50;;;;;24.20;45.63;101312.84;5123270;27;45512;-59
2022/08/26 08:11:51;;;;;;;;;9.25;9.25;;;;;24.22;45.77;101318.13;5104954;27;45325;-59
2022/08/26 08:14:18;;;;;;;;;9.50;8.00;;;;;24.26;45.65;101317.78;5122913;27;45464;-59
2022/08/26 08:16:43;;;;;;;;;10.25;9.50;;;;;24.29;45.48;101311.41;5122976;27;46095;-59
2022/08/26 08:19:09;;;;;;;;;11.50;8.25;;;;;24.33;45.88;101319.16;5123108;27;45173;-59
2022/08/26 08:21:34;;;;;;;;;9.00;9.00;;;;;24.36;45.63;101314.56;5123306;27;45240;-59
2022/08/26 08:23:59;;;;;;;;;8.50;7.75;;;;;24.41;45.77;101321.34;5123146;27;45406;-59
2022/08/26 08:26:25;;;;;;;;;7.25;7.25;;;;;24.48;45.65;101316.47;5123054;27;45534;-59
2022/08/26 08:28:54;;;;;;;;;10.00;9.50;;;;;24.55;45.41;101322.28;5104261;27;45283;-59
2022/08/26 08:31:26;;;;;;;;;11.00;11.00;;;;;24.60;45.34;101318.38;5104814;27;45285;-59
2022/08/26 08:33:51;;;;;;;;;9.25;9.25;;;;;24.66;45.27;101311.75;5122992;27;45559;-60
2022/08/26 08:36:17;;;;;;;;;11.50;10.25;;;;;24.72;45.53;101313.19;5122730;27;45330;-60
2022/08/26 08:38:43;;;;;;;;;8.25;7.00;;;;;24.78;45.38;101315.44;5122736;27;45232;-60
2022/08/26 08:41:47;;;;;;;;;9.50;7.00;;;;;24.85;45.52;101313.25;5122850;27;45499;-59
2022/08/26 08:44:18;;;;;;;;;7.75;7.75;;;;;24.91;45.35;101305.63;5122445;27;45234;-60
2022/08/26 08:46:47;;;;;;;;;9.75;9.00;;;;;24.98;45.25;101308.75;5122804;27;47104;-60
2022/08/26 08:49:13;;;;;;;;;9.00;8.00;;;;;25.05;45.33;101315.47;5122474;27;45243;-60
2022/08/26 08:51:53;;;;;;;;;8.25;8.25;;;;;25.14;44.68;101312.19;5121881;27;45421;-60
2022/08/26 08:54:19;;;;;;;;;8.00;7.25;;;;;25.22;45.08;101314.34;5122584;27;45278;-60
2022/08/26 08:56:57;;;;;;;;;10.00;9.75;;;;;25.32;44.81;101311.91;5122904;27;45351;-60
2022/08/26 08:59:25;;;;;;;;;11.50;10.25;;;;;25.39;44.70;101312.38;5121096;27;46230;-60
2022/08/26 09:01:55;;;;;;;;;7.75;7.00;;;;;25.47;44.57;101308.19;5122842;27;45359;-60
2022/08/26 09:04:37;;;;;;;;;8.00;8.00;;;;;25.55;44.44;101298.75;5121580;27;45378;-60
2022/08/26 09:07:09;;;;;;;;;7.25;7.25;;;;;25.64;44.46;101311.56;5122084;27;45285;-60
2022/08/26 09:10:06;;;;;;;;;10.50;10.00;;;;;25.74;44.12;101309.09;5122534;27;45406;-60
2022/08/26 09:12:33;;;;;;;;;9.50;9.50;;;;;25.80;43.99;101314.91;5089927;27;45544;-60
2022/08/26 09:15:06;;;;;;;;;14.50;10.75;;;;;25.84;43.96;101307.47;5122339;27;45384;-60
2022/08/26 09:17:59;;;;;;;;;9.00;9.00;;;;;25.87;44.11;101317.16;5122075;27;45321;-60
2022/08/26 09:20:51;;;;;;;;;11.00;10.75;;;;;25.86;44.17;101304.66;5122070;27;45303;-60
2022/08/26 09:23:16;;;;;;;;;11.25;9.50;;;;;25.88;44.29;101314.34;5122312;27;45171;-60
2022/08/26 09:25:55;;;;;;;;;10.25;10.25;;;;;25.88;44.07;101316.19;5122158;27;45411;-60
2022/08/26 09:28:23;;;;;;;;;10.00;7.75;;;;;25.88;44.08;101311.66;5121601;27;45415;-60
2022/08/26 09:31:12;;;;;;;;;9.75;9.00;;;;;25.87;43.47;101306.41;5122117;27;45348;-60
2022/08/26 09:33:39;;;;;;;;;9.25;8.00;;;;;25.86;43.10;101310.06;5122289;27;45298;-60
2022/08/26 09:36:22;;;;;;;;;11.00;10.00;;;;;25.87;43.03;101301.84;5121783;27;45504;-60
2022/08/26 09:38:51;;;;;;;;;9.00;9.00;;;;;25.91;43.74;101307.91;5121296;27;45392;-60
2022/08/26 09:41:35;;;;;;;;;9.00;7.50;;;;;25.96;43.73;101309.31;5121696;27;45297;-60
2022/08/26 09:44:17;;;;;;;;;7.00;7.00;;;;;26.05;43.33;101297.06;5121707;27;45295;-60
2022/08/26 09:46:54;;;;;;;;;8.25;7.75;;;;;26.17;43.20;101299.84;5121655;27;45299;-60
2022/08/26 09:49:35;;;;;;;;;8.00;8.00;;;;;26.33;43.69;101305.00;5121350;27;45271;-60
2022/08/26 09:52:20;;;;;;;;;8.00;8.00;;;;;26.48;43.21;101298.50;5103290;27;45875;-60
2022/08/26 09:55:01;;;;;;;;;9.25;9.25;;;;;26.60;42.99;101303.00;5121797;27;45456;-60
2022/08/26 09:57:33;;;;;;;;;9.25;8.25;;;;;26.71;43.46;101301.31;5102775;27;45798;-60
2022/08/26 10:00:00;;;;;;;;;8.75;8.25;;;;;26.70;43.44;101284.28;5121630;27;45962;-60
2022/08/26 10:02:31;;;;;;;;;11.00;10.00;;;;;26.81;42.60;101304.25;5120918;27;45350;-60
2022/08/26 10:04:59;;;;;;;;;8.00;8.00;;;;;26.83;43.03;101303.16;5121693;27;45282;-60
2022/08/26 10:07:33;;;;;;;;;10.00;10.00;;;;;26.86;42.66;101300.22;5102973;27;45525;-60
2022/08/26 10:10:03;;;;;;;;;9.75;9.75;;;;;26.87;42.48;101304.63;5121310;27;45155;-59
2022/08/26 10:12:33;;;;;;;;;12.00;9.75;;;;;26.86;42.82;101297.50;5121024;27;45425;-60
2022/08/26 10:15:07;;;;;;;;;11.50;9.50;;;;;26.90;42.68;101301.69;5121367;27;45302;-59
2022/08/26 10:17:48;;;;;;;;;8.50;8.50;;;;;26.95;42.09;101295.13;5102910;27;45323;-60
2022/08/26 10:20:18;;;;;;;;;10.75;10.00;;;;;27.00;42.45;101298.31;5121057;27;46119;-60
2022/08/26 10:22:53;;;;;;;;;7.75;7.00;;;;;27.08;42.44;101295.91;5102840;27;45391;-59
2022/08/26 10:26:03;;;;;;;;;9.75;9.00;;;;;27.19;42.00;101304.03;5121504;27;45237;-60
2022/08/26 10:29:20;;;;;;;;;10.75;9.50;;;;;27.35;42.46;101290.25;5037007;28;45377;-59
2022/08/26 10:31:53;;;;;;;;;10.50;10.25;;;;;27.57;41.68;101294.88;4978003;28;46063;-60
2022/08/26 10:34:19;;;;;;;;;7.00;7.00;;;;;27.79;42.12;101281.53;5104024;27;45274;-60
2022/08/26 10:36:56;;;;;;;;;6.00;6.00;;;;;27.99;42.09;101286.22;5120806;27;45921;-60
2022/08/26 10:39:35;;;;;;;;;7.75;7.50;;;;;28.19;42.00;101295.44;5121148;27;45192;-60
2022/08/26 10:42:24;;;;;;;;;6.75;6.75;;;;;28.36;41.79;101291.41;5120658;27;46487;-59
2022/08/26 10:44:54;;;;;;;;;8.00;8.00;;;;;28.51;41.19;101294.66;5120796;27;45242;-60
2022/08/26 10:47:24;;;;;;;;;7.75;6.50;;;;;28.69;41.16;101286.94;5121186;27;45390;-58
2022/08/26 10:49:52;;;;;;;;;9.25;7.25;;;;;28.94;41.31;101294.84;5120329;27;45394;-59
2022/08/26 10:52:38;;;;;;;;;6.25;6.25;;;;;29.26;41.30;101292.13;5120843;27;46160;-58
2022/08/26 10:55:27;;;;;;;;;5.75;5.75;;;;;29.64;40.96;101287.13;5120895;27;45274;-58
2022/08/26 10:58:04;;;;;;;;;3.75;3.00;;;;;29.95;41.11;101289.88;5120467;27;45456;-58
2022/08/26 11:03:33;;;;;;;;;8.50;7.25;;;;;30.80;41.37;101285.03;5120833;27;45278;-58
2022/08/26 11:06:20;;;;;;;;;9.50;8.00;;;;;31.17;40.34;101275.34;5120664;27;45258;-58
2022/08/26 11:08:56;;;;;;;;;10.75;8.00;;;;;31.49;39.73;101290.47;5120783;27;45455;-58
2022/08/26 11:11:40;;;;;;;;;8.25;6.25;;;;;31.72;39.64;101289.16;5102148;27;45613;-58
2022/08/26 11:14:18;;;;;;;;;6.75;6.50;;;;;31.87;39.09;101288.66;5121790;27;46897;-58
2022/08/26 11:16:50;;;;;;;;;13.00;8.00;;;;;32.01;38.65;101282.75;5124198;27;45539;-59
2022/08/26 11:19:39;;;;;;;;;9.00;7.75;;;;;32.12;38.73;101283.56;5124258;27;45235;-59
2022/08/26 11:22:24;;;;;;;;;7.00;7.00;;;;;32.13;37.94;101277.13;5111603;27;45501;-58
2022/08/26 11:24:52;;;;;;;;;9.75;8.00;;;;;32.12;38.23;101286.28;5123839;27;45322;-59
2022/08/26 11:27:35;;;;;;;;;8.75;7.00;;;;;32.09;37.89;101288.28;5123645;27;45332;-58
2022/08/26 11:30:27;;;;;;;;;7.00;7.00;;;;;32.07;37.46;101275.84;5123937;27;45313;-58
2022/08/26 11:32:55;;;;;;;;;7.00;6.50;;;;;31.97;37.12;101275.91;5112446;27;45246;-58
2022/08/26 11:35:23;;;;;;;;;8.75;8.25;;;;;31.88;37.04;101285.78;5123616;27;47105;-58
2022/08/26 11:38:11;;;;;;;;;6.75;6.75;;;;;31.71;36.43;101282.00;5123476;27;45282;-58
2022/08/26 11:40:37;;;;;;;;;8.75;8.50;;;;;31.56;36.71;101275.28;5123966;27;45259;-58
2022/08/26 11:43:11;;;;;;;;;11.00;9.00;;;;;31.47;37.01;101277.00;5123303;27;45235;-58
2022/08/26 11:45:39;;;;;;;;;7.50;7.25;;;;;31.50;36.55;101273.19;5123670;27;45247;-58
2022/08/26 11:48:28;;;;;;;;;10.75;9.25;;;;;31.66;37.08;101259.00;5104925;27;45346;-58